Time;durP1;ratioP1;P1;durP2;ratioP2;P2;SDS_P1;SDS_P2;PMS_P1;PMS_P2;Temp;Humidity;BMP_temperature;BMP_pressure;BME280_temperature;BME280_humidity;BME280_pressure;Samples;Min_cycle;Max_cycle;Signal;HPM_P1;HPM_P2
2021/09/30 00:00:00;;;;;;;7.75;1.52;;;10.20;99.90;;;;;;5078866;28;20051;-68
2021/09/30 00:02:26;;;;;;;9.10;0.90;;;10.10;99.90;;;;;;5069344;28;20044;-68
2021/09/30 00:04:52;;;;;;;9.85;0.93;;;10.20;99.90;;;;;;5075334;28;20036;-68
2021/09/30 00:07:18;;;;;;;7.15;0.55;;;10.10;99.90;;;;;;5059158;28;20039;-68
2021/09/30 00:09:46;;;;;;;8.88;1.20;;;10.10;99.90;;;;;;5082273;28;20115;-68
2021/09/30 00:12:17;;;;;;;4.65;0.43;;;10.00;99.90;;;;;;5076453;28;20149;-68
2021/09/30 00:14:49;;;;;;;5.45;0.70;;;10.10;99.90;;;;;;5077546;28;20040;-68
2021/09/30 00:42:23;;;;;;;4.05;0.40;;;9.80;99.90;;;;;;4987516;28;20084;-68
2021/09/30 00:48:31;;;;;;;7.60;0.80;;;9.70;99.90;;;;;;5046080;28;20048;-67
2021/09/30 00:50:42;;;;;;;11.65;0.80;;;9.60;99.90;;;;;;5066738;28;20379;-67
2021/09/30 01:33:22;;;;;;;9.73;0.90;;;9.30;99.90;;;;;;5079912;28;20110;-67
2021/09/30 01:47:01;;;;;;;9.00;0.70;;;9.40;99.90;;;;;;5076988;28;20048;-67
2021/09/30 02:59:09;;;;;;;5.70;0.83;;;9.50;99.90;;;;;;5084276;28;20072;-68
2021/09/30 03:01:36;;;;;;;6.53;0.65;;;9.50;99.90;;;;;;5063784;28;20047;-68
2021/09/30 03:04:03;;;;;;;3.65;0.30;;;9.50;99.90;;;;;;5079845;28;20076;-68
2021/09/30 03:06:30;;;;;;;6.47;0.50;;;9.50;99.90;;;;;;5080010;28;20481;-68
2021/09/30 03:08:58;;;;;;;3.50;0.20;;;9.50;99.90;;;;;;5087332;28;20101;-68
2021/09/30 03:11:26;;;;;;;5.40;0.57;;;9.50;99.90;;;;;;5082798;28;20127;-67
2021/09/30 03:13:54;;;;;;;9.05;0.80;;;9.50;99.90;;;;;;5062521;28;20040;-68
2021/09/30 03:17:01;;;;;;;3.53;0.55;;;9.50;99.90;;;;;;5063219;28;20041;-68
2021/09/30 03:24:34;;;;;;;4.68;0.40;;;9.50;99.90;;;;;;5063939;28;20134;-67
2021/09/30 03:27:01;;;;;;;9.63;0.57;;;9.50;99.90;;;;;;5060801;28;20044;-67
2021/09/30 03:29:27;;;;;;;4.15;1.05;;;9.50;99.90;;;;;;5062729;28;20036;-67
2021/09/30 03:31:53;;;;;;;4.25;0.52;;;9.50;99.90;;;;;;5064786;28;20174;-67
2021/09/30 03:34:20;;;;;;;4.47;0.47;;;9.40;99.90;;;;;;5064576;28;20474;-67
2021/09/30 03:36:46;;;;;;;8.77;1.20;;;9.40;99.90;;;;;;5079582;28;20395;-67
2021/09/30 03:39:22;;;;;;;8.98;0.55;;;9.40;99.90;;;;;;5048296;28;20044;-67
2021/09/30 03:41:49;;;;;;;7.18;0.50;;;9.50;99.90;;;;;;5085883;28;20492;-67
2021/09/30 03:44:14;;;;;;;6.95;0.60;;;9.40;99.90;;;;;;5061647;28;20072;-68
2021/09/30 03:46:40;;;;;;;8.90;0.60;;;9.40;99.90;;;;;;5064318;28;20083;-67
2021/09/30 03:49:12;;;;;;;3.50;1.10;;;9.40;99.90;;;;;;5084641;28;20078;-67
2021/09/30 03:57:02;;;;;;;2.92;0.40;;;9.30;99.90;;;;;;5060568;28;20182;-67
2021/09/30 03:59:28;;;;;;;3.70;0.50;;;9.30;99.90;;;;;;5064757;28;20093;-67
2021/09/30 04:01:56;;;;;;;4.20;0.52;;;9.20;99.90;;;;;;5064262;28;20043;-68
2021/09/30 04:04:27;;;;;;;5.85;0.63;;;9.20;99.90;;;;;;5062435;28;20037;-67
2021/09/30 04:06:55;;;;;;;3.72;0.75;;;9.20;99.90;;;;;;5062732;28;20063;-67
2021/09/30 04:09:26;;;;;;;4.20;0.60;;;9.20;99.90;;;;;;5079504;28;20040;-67
2021/09/30 04:11:59;;;;;;;6.97;0.50;;;9.20;99.90;;;;;;5082215;28;20112;-68
2021/09/30 04:14:25;;;;;;;3.20;0.40;;;9.20;99.90;;;;;;5059205;28;20040;-68
2021/09/30 04:16:52;;;;;;;6.10;0.70;;;9.20;99.90;;;;;;5056043;28;20151;-68
2021/09/30 04:19:19;;;;;;;9.57;1.00;;;9.30;99.90;;;;;;5056439;28;20100;-67
2021/09/30 04:21:47;;;;;;;4.70;0.52;;;9.30;99.90;;;;;;5075050;28;20636;-67
2021/09/30 04:24:13;;;;;;;6.22;1.02;;;9.30;99.90;;;;;;5054313;28;20044;-67
2021/09/30 04:26:39;;;;;;;5.20;0.50;;;9.30;99.90;;;;;;5075618;28;20067;-68
2021/09/30 04:29:05;;;;;;;6.05;0.50;;;9.30;99.90;;;;;;5057644;28;20094;-67
2021/09/30 04:31:31;;;;;;;3.92;0.63;;;9.20;99.90;;;;;;5060663;28;20035;-68
2021/09/30 04:33:56;;;;;;;5.72;0.70;;;9.20;99.90;;;;;;5057642;28;20187;-68
2021/09/30 04:36:22;;;;;;;3.53;0.47;;;9.10;99.90;;;;;;5075107;28;20039;-67
2021/09/30 04:38:49;;;;;;;7.22;0.60;;;9.00;99.90;;;;;;5076116;28;20063;-67
2021/09/30 04:41:16;;;;;;;4.95;0.70;;;9.00;99.90;;;;;;5060728;28;20047;-67
2021/09/30 04:43:45;;;;;;;5.93;1.23;;;9.00;99.90;;;;;;5055371;28;20044;-67
2021/09/30 04:46:12;;;;;;;12.70;3.58;;;9.60;99.90;;;;;;5078779;28;20597;-68
2021/09/30 04:48:38;;;;;;;14.20;4.75;;;9.10;99.90;;;;;;5054275;28;20093;-67
2021/09/30 04:51:03;;;;;;;7.78;3.25;;;9.10;99.90;;;;;;5078003;28;20131;-68
2021/09/30 04:53:29;;;;;;;13.48;6.60;;;9.10;99.90;;;;;;5074799;28;20505;-68
2021/09/30 04:55:55;;;;;;;23.60;8.75;;;9.10;99.90;;;;;;5057190;28;20056;-68
2021/09/30 04:58:21;;;;;;;25.63;10.73;;;9.10;99.90;;;;;;5076956;28;20383;-67
2021/09/30 05:00:46;;;;;;;25.63;11.80;;;9.10;99.90;;;;;;5059316;28;20044;-67
2021/09/30 05:03:13;;;;;;;29.85;13.95;;;9.10;99.90;;;;;;5083384;28;20043;-67
2021/09/30 05:05:38;;;;;;;36.63;16.88;;;9.20;99.90;;;;;;5059869;28;20768;-67
2021/09/30 05:08:04;;;;;;;39.10;17.75;;;9.20;99.90;;;;;;5061576;28;20032;-67
2021/09/30 05:10:32;;;;;;;42.28;20.27;;;9.30;99.90;;;;;;5076579;28;20028;-67
2021/09/30 05:13:10;;;;;;;40.63;21.67;;;9.30;99.90;;;;;;5040940;28;20142;-68
2021/09/30 05:15:37;;;;;;;45.85;22.42;;;9.30;99.90;;;;;;5058771;28;20075;-68
2021/09/30 05:18:04;;;;;;;56.97;24.55;;;9.30;99.90;;;;;;5057527;28;20120;-68
2021/09/30 05:20:29;;;;;;;47.20;22.77;;;9.40;99.90;;;;;;5053847;28;20048;-67
2021/09/30 05:22:55;;;;;;;52.83;24.25;;;9.40;99.90;;;;;;5056060;28;20047;-67
2021/09/30 05:25:21;;;;;;;50.08;23.42;;;9.40;99.90;;;;;;5057454;28;20048;-67
2021/09/30 05:27:47;;;;;;;48.85;24.63;;;9.40;99.90;;;;;;5078256;28;20032;-67
2021/09/30 05:30:13;;;;;;;48.97;25.58;;;9.40;99.90;;;;;;5061621;28;20398;-68
2021/09/30 05:32:39;;;;;;;51.80;24.27;;;9.40;99.90;;;;;;5075510;28;21032;-68
2021/09/30 05:35:05;;;;;;;51.53;24.85;;;9.40;99.90;;;;;;5057369;28;20049;-67
2021/09/30 05:37:31;;;;;;;49.35;25.17;;;9.40;99.90;;;;;;5056759;28;20505;-68
2021/09/30 05:39:57;;;;;;;57.47;27.92;;;9.40;99.90;;;;;;5057577;28;20078;-68
2021/09/30 05:42:24;;;;;;;61.78;27.40;;;9.40;99.90;;;;;;5059610;28;20134;-68
2021/09/30 05:44:50;;;;;;;56.33;27.98;;;9.40;99.90;;;;;;5059212;28;20064;-68
2021/09/30 05:47:16;;;;;;;56.05;27.00;;;9.40;99.90;;;;;;5058237;28;20036;-68
2021/09/30 05:49:42;;;;;;;52.33;25.83;;;9.40;99.90;;;;;;5080090;28;20046;-68
2021/09/30 05:52:07;;;;;;;50.25;26.65;;;9.40;99.90;;;;;;5076154;28;20072;-68
2021/09/30 05:54:33;;;;;;;54.15;26.98;;;9.40;99.90;;;;;;5055252;28;20044;-67
2021/09/30 05:56:59;;;;;;;45.88;23.08;;;9.40;99.90;;;;;;5058534;28;20094;-66
2021/09/30 05:59:24;;;;;;;45.17;24.73;;;9.40;99.90;;;;;;5061101;28;20051;-67
2021/09/30 06:10:19;;;;;;;38.00;17.90;;;9.60;99.90;;;;;;5081331;28;20044;-67
2021/09/30 06:13:09;;;;;;;34.22;16.05;;;9.70;99.90;;;;;;5067181;28;20037;-67
2021/09/30 06:15:38;;;;;;;36.75;16.65;;;9.70;99.90;;;;;;5072709;28;20469;-67
2021/09/30 06:18:07;;;;;;;35.80;15.68;;;9.80;99.90;;;;;;5078529;28;20194;-67
2021/09/30 06:20:33;;;;;;;33.67;14.80;;;9.90;99.90;;;;;;5076220;28;20045;-67
2021/09/30 06:22:59;;;;;;;36.13;15.40;;;10.20;99.90;;;;;;5058670;28;20173;-67
2021/09/30 06:25:24;;;;;;;30.05;13.80;;;10.60;99.90;;;;;;5056146;28;20048;-67
2021/09/30 06:27:50;;;;;;;37.33;13.45;;;10.80;99.90;;;;;;5042637;28;20036;-67
2021/09/30 06:30:16;;;;;;;27.65;12.15;;;11.00;99.90;;;;;;5059950;28;20481;-67
2021/09/30 06:32:42;;;;;;;31.02;12.20;;;11.50;99.90;;;;;;5058870;28;20047;-67
2021/09/30 06:35:08;;;;;;;30.80;13.13;;;11.70;99.90;;;;;;5058497;28;20040;-67
2021/09/30 06:37:34;;;;;;;33.10;12.18;;;11.70;99.90;;;;;;5056789;28;20044;-67
2021/09/30 06:40:00;;;;;;;38.15;13.95;;;11.60;99.90;;;;;;5056460;28;20563;-67
2021/09/30 06:42:26;;;;;;;35.45;13.98;;;11.60;99.90;;;;;;5077583;28;20071;-67
2021/09/30 06:44:52;;;;;;;42.30;13.95;;;11.60;99.90;;;;;;5047008;28;20044;-67
2021/09/30 06:47:17;;;;;;;39.05;14.82;;;11.60;99.90;;;;;;5055843;28;20043;-67
2021/09/30 06:49:43;;;;;;;35.97;13.85;;;11.70;99.90;;;;;;5057355;28;20042;-67
2021/09/30 06:52:09;;;;;;;41.25;14.52;;;11.70;99.90;;;;;;5079106;28;20032;-67
2021/09/30 06:54:35;;;;;;;37.63;14.07;;;11.60;99.90;;;;;;5077673;28;20032;-67
2021/09/30 06:57:00;;;;;;;38.20;15.93;;;11.50;99.90;;;;;;5059061;28;20048;-67
2021/09/30 06:59:34;;;;;;;36.35;14.18;;;11.60;99.90;;;;;;5058581;28;20039;-67
2021/09/30 07:02:07;;;;;;;45.00;16.30;;;11.70;99.90;;;;;;5059817;28;20476;-67
2021/09/30 07:04:34;;;;;;;48.97;16.48;;;11.80;99.90;;;;;;5058219;28;20051;-67
2021/09/30 07:07:01;;;;;;;49.25;15.75;;;11.90;99.90;;;;;;5076010;28;20028;-67
2021/09/30 07:09:27;;;;;;;49.60;18.40;;;12.00;99.90;;;;;;5077813;28;20028;-66
2021/09/30 07:11:53;;;;;;;46.03;19.60;;;12.00;99.90;;;;;;5079224;28;20474;-67
2021/09/30 07:14:19;;;;;;;46.45;18.40;;;11.90;99.90;;;;;;5057842;28;20471;-67
2021/09/30 07:16:44;;;;;;;46.47;19.67;;;11.90;99.90;;;;;;5077036;28;20041;-67
2021/09/30 07:19:10;;;;;;;53.90;22.10;;;11.80;99.90;;;;;;5074891;28;20029;-67
2021/09/30 07:21:36;;;;;;;50.53;20.92;;;11.80;99.90;;;;;;5077544;28;20567;-67
2021/09/30 07:24:02;;;;;;;50.92;22.13;;;11.80;99.90;;;;;;5075165;28;20124;-67
2021/09/30 07:26:28;;;;;;;53.85;22.88;;;11.80;99.90;;;;;;5076379;28;20106;-67
2021/09/30 07:28:54;;;;;;;52.85;21.63;;;11.80;99.90;;;;;;5057175;28;20114;-67
2021/09/30 07:31:20;;;;;;;49.65;22.55;;;11.80;99.90;;;;;;5073891;28;20035;-67
2021/09/30 07:33:46;;;;;;;51.53;21.58;;;11.90;99.90;;;;;;5075519;28;20048;-67
2021/09/30 07:36:13;;;;;;;52.80;22.30;;;12.00;99.90;;;;;;5074369;28;20032;-66
2021/09/30 07:38:40;;;;;;;48.38;19.38;;;11.90;99.90;;;;;;5076820;28;20086;-67
2021/09/30 07:41:06;;;;;;;39.85;16.60;;;12.00;99.90;;;;;;5057294;28;20050;-67
2021/09/30 07:43:32;;;;;;;36.33;15.57;;;12.00;99.90;;;;;;5054178;28;20044;-67
2021/09/30 07:45:58;;;;;;;24.13;9.13;;;12.00;99.90;;;;;;5059917;28;20036;-67
2021/09/30 07:48:24;;;;;;;23.23;8.13;;;12.10;99.90;;;;;;5057475;28;20378;-67
2021/09/30 07:51:00;;;;;;;15.48;4.18;;;12.20;99.90;;;;;;5057923;28;20039;-67
2021/09/30 07:53:28;;;;;;;11.50;3.38;;;12.40;99.90;;;;;;5055610;28;20036;-67
2021/09/30 07:55:53;;;;;;;8.60;2.85;;;12.50;99.90;;;;;;5057574;28;20036;-67
2021/09/30 07:58:19;;;;;;;8.13;1.90;;;12.60;99.90;;;;;;5076662;28;20028;-67
2021/09/30 08:00:45;;;;;;;7.63;1.60;;;12.70;99.90;;;;;;5057994;28;20134;-67
2021/09/30 08:03:11;;;;;;;6.55;0.80;;;12.80;99.90;;;;;;5055964;28;20086;-67
2021/09/30 08:05:37;;;;;;;5.70;1.00;;;13.00;99.90;;;;;;5058578;28;20043;-67
2021/09/30 08:08:05;;;;;;;6.07;0.80;;;13.00;99.90;;;;;;5075488;28;20414;-67
2021/09/30 08:10:31;;;;;;;7.50;1.02;;;13.00;99.90;;;;;;5073812;28;20044;-67
2021/09/30 08:12:57;;;;;;;5.00;0.85;;;13.00;99.90;;;;;;5056961;28;20043;-67
2021/09/30 08:15:23;;;;;;;6.28;0.50;;;13.00;99.90;;;;;;5069782;28;20426;-67
2021/09/30 08:17:49;;;;;;;7.65;0.88;;;13.00;99.90;;;;;;5066411;28;20044;-67
2021/09/30 08:20:16;;;;;;;5.47;0.88;;;13.00;99.90;;;;;;5083978;28;20044;-66
2021/09/30 08:22:42;;;;;;;6.85;0.80;;;13.00;99.90;;;;;;5080223;28;20043;-67
2021/09/30 08:25:09;;;;;;;7.38;0.82;;;13.00;99.90;;;;;;5079808;28;20081;-67
2021/09/30 08:27:35;;;;;;;6.82;0.93;;;13.00;99.90;;;;;;5054311;28;20474;-67
2021/09/30 08:30:01;;;;;;;6.43;1.10;;;13.10;99.90;;;;;;5056406;28;20131;-67
2021/09/30 08:32:26;;;;;;;7.90;0.85;;;13.10;99.90;;;;;;5078017;28;20033;-67
2021/09/30 08:34:52;;;;;;;6.60;1.10;;;13.20;99.90;;;;;;5059656;28;20533;-66
2021/09/30 08:37:18;;;;;;;6.85;1.48;;;13.20;99.90;;;;;;5056945;28;20144;-67
2021/09/30 08:39:44;;;;;;;6.63;1.98;;;13.20;99.90;;;;;;5066682;28;20050;-67
2021/09/30 08:42:10;;;;;;;9.10;0.80;;;13.30;99.90;;;;;;5072677;28;20044;-67
2021/09/30 08:44:35;;;;;;;5.32;1.05;;;13.30;99.90;;;;;;5054136;28;20076;-67
2021/09/30 08:47:05;;;;;;;6.50;1.02;;;13.40;99.90;;;;;;5075451;28;20447;-67
2021/09/30 08:49:33;;;;;;;7.80;1.15;;;13.40;99.90;;;;;;5071788;28;20071;-67
2021/09/30 08:52:00;;;;;;;6.13;1.13;;;13.40;99.90;;;;;;5074919;28;20034;-67
2021/09/30 08:54:26;;;;;;;6.90;0.73;;;13.50;99.90;;;;;;5057105;28;20053;-67
2021/09/30 08:56:52;;;;;;;6.90;1.23;;;13.50;99.90;;;;;;5075033;28;20036;-67
2021/09/30 08:59:28;;;;;;;5.75;1.05;;;13.60;99.90;;;;;;5073219;28;20047;-67
2021/09/30 09:02:14;;;;;;;7.13;1.10;;;13.70;99.90;;;;;;5066834;28;20070;-67
2021/09/30 09:04:55;;;;;;;7.75;1.33;;;13.80;99.90;;;;;;5053408;28;20039;-67
2021/09/30 09:07:33;;;;;;;8.30;1.58;;;13.90;99.90;;;;;;5073240;28;20036;-67
2021/09/30 09:10:02;;;;;;;7.32;1.00;;;14.00;99.90;;;;;;5054149;28;20051;-67
2021/09/30 09:12:31;;;;;;;7.13;1.20;;;14.10;99.90;;;;;;5057067;28;20516;-67
2021/09/30 09:14:59;;;;;;;9.32;1.60;;;14.10;99.90;;;;;;5054982;28;20040;-67
2021/09/30 09:17:25;;;;;;;8.68;1.92;;;14.20;99.90;;;;;;5076231;28;20127;-67
2021/09/30 09:19:59;;;;;;;7.45;1.92;;;14.30;99.90;;;;;;5054064;28;20130;-67
2021/09/30 09:22:36;;;;;;;15.38;3.60;;;14.30;99.90;;;;;;5072952;28;20040;-67
2021/09/30 09:25:19;;;;;;;11.30;3.00;;;14.30;99.90;;;;;;5052729;28;20044;-67
2021/09/30 09:27:59;;;;;;;15.90;3.28;;;14.40;99.90;;;;;;5056766;28;20126;-67
2021/09/30 09:30:43;;;;;;;13.23;3.22;;;14.50;99.90;;;;;;5058423;28;20524;-67
2021/09/30 09:33:21;;;;;;;11.63;2.75;;;14.50;99.90;;;;;;5056940;28;20037;-67
2021/09/30 09:35:54;;;;;;;17.90;2.75;;;14.40;99.90;;;;;;5075384;28;20040;-67
2021/09/30 09:38:24;;;;;;;15.43;3.35;;;14.30;99.90;;;;;;5059209;28;20545;-67
2021/09/30 09:41:03;;;;;;;7.25;2.30;;;14.30;99.90;;;;;;5071311;28;21336;-67
2021/09/30 09:43:39;;;;;;;13.43;1.95;;;14.30;99.90;;;;;;5075990;28;20041;-67
2021/09/30 09:46:07;;;;;;;8.10;1.90;;;14.40;99.90;;;;;;5071200;28;20106;-67
2021/09/30 09:48:33;;;;;;;13.30;2.35;;;14.50;99.90;;;;;;5071663;28;20436;-67
2021/09/30 09:51:02;;;;;;;8.80;1.88;;;14.60;99.90;;;;;;5071941;28;20125;-67
2021/09/30 09:53:30;;;;;;;9.43;1.65;;;14.80;99.90;;;;;;5054271;28;20045;-67
2021/09/30 09:56:15;;;;;;;11.85;1.40;;;14.90;99.90;;;;;;5053949;28;20055;-66
2021/09/30 09:58:52;;;;;;;10.23;1.63;;;15.00;99.90;;;;;;5069627;28;20408;-66
2021/09/30 10:01:22;;;;;;;7.65;1.20;;;15.20;99.90;;;;;;5058713;28;20032;-66
2021/09/30 10:03:58;;;;;;;7.05;1.45;;;15.40;99.90;;;;;;5073209;28;20816;-67
2021/09/30 10:06:25;;;;;;;8.75;1.23;;;15.60;99.90;;;;;;5075435;28;20032;-67
2021/09/30 10:08:52;;;;;;;8.80;1.00;;;15.80;99.90;;;;;;5073695;28;20135;-67
2021/09/30 10:11:18;;;;;;;6.70;1.02;;;16.00;99.90;;;;;;5075271;28;20370;-66
2021/09/30 10:13:44;;;;;;;6.75;1.00;;;16.00;99.90;;;;;;5074957;28;20040;-67
2021/09/30 10:16:10;;;;;;;3.75;0.70;;;16.20;99.90;;;;;;5057357;28;20094;-67
2021/09/30 10:18:36;;;;;;;8.05;0.95;;;16.30;99.90;;;;;;5074127;28;20048;-67
2021/09/30 10:21:02;;;;;;;9.63;1.45;;;16.40;99.90;;;;;;5071649;28;20495;-67
2021/09/30 10:23:35;;;;;;;9.70;0.90;;;16.60;99.90;;;;;;5074210;28;20043;-67
2021/09/30 10:26:31;;;;;;;10.48;1.10;;;16.70;99.90;;;;;;5053574;28;20455;-67
2021/09/30 10:28:59;;;;;;;8.48;0.88;;;16.70;99.90;;;;;;5046308;28;20052;-67
2021/09/30 10:31:32;;;;;;;8.93;1.58;;;16.70;99.90;;;;;;5077187;28;20085;-67
2021/09/30 10:34:03;;;;;;;5.60;0.77;;;16.70;99.90;;;;;;5057525;28;20079;-66
2021/09/30 10:36:44;;;;;;;7.07;0.90;;;16.70;99.90;;;;;;5056596;28;20131;-66
2021/09/30 10:39:22;;;;;;;7.50;1.02;;;16.70;99.90;;;;;;5077128;28;20040;-66
2021/09/30 10:41:52;;;;;;;10.85;1.55;;;16.60;99.90;;;;;;5060163;28;20048;-66
2021/09/30 10:44:20;;;;;;;6.88;1.00;;;16.50;99.90;;;;;;5056584;28;20132;-66
2021/09/30 10:46:49;;;;;;;7.35;0.93;;;16.50;99.90;;;;;;5061987;28;20185;-66
2021/09/30 10:49:34;;;;;;;7.15;1.30;;;16.40;99.90;;;;;;5082356;28;20573;-68
2021/09/30 10:52:28;;;;;;;5.97;0.73;;;16.40;99.90;;;;;;5078637;28;20500;-68
2021/09/30 10:55:00;;;;;;;5.55;1.35;;;16.30;99.90;;;;;;5060358;28;20645;-68
2021/09/30 10:57:46;;;;;;;8.68;0.73;;;16.10;99.90;;;;;;5061066;28;20048;-67
2021/09/30 11:00:44;;;;;;;7.82;0.75;;;16.00;99.90;;;;;;5059152;28;20052;-67
2021/09/30 11:03:13;;;;;;;10.10;1.33;;;16.00;99.90;;;;;;5061356;28;20036;-67
2021/09/30 11:05:41;;;;;;;11.07;2.15;;;15.90;99.90;;;;;;5060684;28;20135;-67
2021/09/30 11:08:25;;;;;;;11.85;1.83;;;15.80;99.90;;;;;;5056358;28;20046;-67
2021/09/30 11:11:12;;;;;;;9.73;2.03;;;15.60;99.90;;;;;;5079151;28;20055;-65
2021/09/30 11:13:38;;;;;;;8.25;2.10;;;15.60;99.90;;;;;;5059294;28;20052;-65
2021/09/30 11:16:11;;;;;;;12.77;2.60;;;15.60;99.90;;;;;;5077163;28;20072;-65
2021/09/30 11:18:39;;;;;;;8.45;2.33;;;15.70;99.90;;;;;;5060312;28;20038;-65
2021/09/30 11:21:38;;;;;;;9.23;1.25;;;15.70;99.90;;;;;;5059209;28;20110;-65
2021/09/30 11:24:25;;;;;;;7.38;1.27;;;15.60;99.90;;;;;;5036209;28;20226;-65
2021/09/30 11:26:54;;;;;;;6.20;0.70;;;15.70;99.90;;;;;;5080416;28;20033;-65
2021/09/30 11:29:20;;;;;;;7.53;0.95;;;15.70;99.90;;;;;;5058664;28;20083;-65
2021/09/30 11:31:58;;;;;;;10.45;1.00;;;15.80;99.90;;;;;;5076060;28;20124;-66
2021/09/30 11:34:29;;;;;;;7.50;0.80;;;15.90;99.90;;;;;;5060644;28;20055;-66
2021/09/30 11:36:57;;;;;;;10.25;1.02;;;16.00;99.90;;;;;;5057281;28;20490;-65
2021/09/30 11:39:33;;;;;;;8.52;1.13;;;16.10;99.90;;;;;;5057239;28;20499;-66
2021/09/30 11:41:59;;;;;;;9.77;1.00;;;16.30;99.90;;;;;;5059361;28;20056;-66
2021/09/30 11:44:25;;;;;;;9.10;1.33;;;16.50;99.90;;;;;;5059174;28;20051;-66
2021/09/30 11:46:53;;;;;;;11.48;1.25;;;16.70;99.90;;;;;;5078226;28;20037;-66
2021/09/30 11:49:19;;;;;;;9.65;1.88;;;16.80;99.90;;;;;;5058277;28;20031;-66
2021/09/30 11:51:45;;;;;;;6.00;1.23;;;16.90;99.90;;;;;;5057710;28;20037;-66
2021/09/30 11:54:17;;;;;;;7.43;1.00;;;16.90;99.90;;;;;;5055765;28;20083;-66
2021/09/30 11:56:49;;;;;;;9.30;0.88;;;16.80;99.90;;;;;;5053734;28;20044;-66
2021/09/30 11:59:18;;;;;;;7.65;1.48;;;16.80;99.90;;;;;;5076665;28;20528;-66
2021/09/30 12:01:49;;;;;;;9.10;2.08;;;16.70;99.90;;;;;;5076683;28;20094;-66
2021/09/30 12:04:30;;;;;;;10.93;0.70;;;16.70;99.90;;;;;;5059001;28;20084;-66
2021/09/30 12:06:56;;;;;;;12.45;1.30;;;16.70;99.90;;;;;;5057769;28;20044;-66
2021/09/30 12:09:23;;;;;;;6.53;0.77;;;16.70;99.90;;;;;;5077115;28;20374;-66
2021/09/30 12:11:55;;;;;;;7.43;1.08;;;16.70;99.90;;;;;;5076964;28;20039;-66
2021/09/30 12:14:22;;;;;;;9.30;1.88;;;16.70;99.90;;;;;;5074308;28;20115;-66
2021/09/30 12:17:01;;;;;;;9.45;1.27;;;16.70;99.90;;;;;;5056776;28;20039;-65
2021/09/30 12:19:33;;;;;;;7.60;1.20;;;16.60;99.90;;;;;;5076216;28;20028;-66
2021/09/30 12:22:00;;;;;;;7.72;1.33;;;16.70;99.90;;;;;;5072787;28;20036;-66
2021/09/30 12:24:27;;;;;;;13.82;1.70;;;16.80;99.90;;;;;;5057030;28;20063;-65
2021/09/30 12:26:53;;;;;;;9.80;1.38;;;16.80;99.90;;;;;;5061253;28;20044;-65
2021/09/30 12:29:21;;;;;;;5.22;1.25;;;16.80;99.90;;;;;;5077206;28;20040;-65
2021/09/30 12:32:05;;;;;;;6.72;0.80;;;16.80;99.90;;;;;;5077730;28;20579;-65
2021/09/30 12:34:31;;;;;;;5.75;0.98;;;16.60;99.90;;;;;;5074463;28;20437;-65
2021/09/30 12:36:57;;;;;;;7.45;1.15;;;16.50;99.90;;;;;;5075302;28;20500;-65
2021/09/30 12:39:28;;;;;;;6.03;1.10;;;16.40;99.90;;;;;;5079390;28;20075;-65
2021/09/30 12:41:54;;;;;;;7.05;1.33;;;16.20;99.90;;;;;;5054473;28;20075;-65
2021/09/30 12:44:20;;;;;;;7.53;1.40;;;16.10;99.90;;;;;;5073970;28;20544;-65
2021/09/30 12:46:54;;;;;;;9.02;2.00;;;16.00;99.90;;;;;;5075750;28;20478;-65
2021/09/30 12:49:20;;;;;;;9.82;1.35;;;16.00;99.90;;;;;;5056019;28;20043;-65
2021/09/30 12:51:46;;;;;;;7.95;1.50;;;15.90;99.90;;;;;;5059674;28;20048;-65
2021/09/30 12:54:23;;;;;;;16.60;1.45;;;15.80;99.90;;;;;;5076963;28;20413;-65
2021/09/30 12:56:48;;;;;;;9.75;1.13;;;15.80;99.90;;;;;;5046559;28;20052;-65
2021/09/30 12:59:16;;;;;;;11.60;1.65;;;15.70;99.90;;;;;;5053585;28;20036;-65
2021/09/30 13:01:45;;;;;;;12.98;1.40;;;15.70;99.90;;;;;;5057076;28;20048;-65
2021/09/30 13:04:23;;;;;;;6.85;1.60;;;15.60;99.90;;;;;;5058736;28;20086;-65
2021/09/30 13:06:56;;;;;;;8.63;1.10;;;15.50;99.90;;;;;;5055433;28;20754;-65
2021/09/30 13:09:24;;;;;;;7.80;0.95;;;15.50;99.90;;;;;;5056893;28;20082;-65
2021/09/30 13:11:56;;;;;;;7.68;1.10;;;15.50;99.90;;;;;;5073446;28;20036;-65
2021/09/30 13:14:35;;;;;;;5.43;0.80;;;15.40;99.90;;;;;;5074361;28;20128;-65
2021/09/30 13:17:13;;;;;;;9.60;0.82;;;15.40;99.90;;;;;;5075657;28;20072;-65
2021/09/30 13:19:47;;;;;;;5.78;0.90;;;15.40;99.90;;;;;;5054673;28;20048;-65
2021/09/30 13:22:14;;;;;;;7.03;0.90;;;15.30;99.90;;;;;;5075465;28;20040;-65
2021/09/30 13:24:41;;;;;;;7.72;0.90;;;15.30;99.90;;;;;;5073969;28;20047;-65
2021/09/30 13:27:10;;;;;;;9.20;1.25;;;15.30;99.90;;;;;;5057401;28;20101;-65
2021/09/30 13:29:36;;;;;;;5.38;0.70;;;15.30;99.90;;;;;;5053715;28;20125;-65
2021/09/30 13:32:03;;;;;;;6.68;0.77;;;15.20;99.90;;;;;;5040996;28;20075;-65
2021/09/30 13:34:29;;;;;;;7.15;0.65;;;15.10;99.90;;;;;;5053940;28;20048;-65
2021/09/30 13:36:54;;;;;;;5.30;1.00;;;15.00;99.90;;;;;;5056497;28;20799;-65
2021/09/30 13:39:20;;;;;;;7.88;0.90;;;15.00;99.90;;;;;;5057523;28;20054;-65
2021/09/30 13:41:46;;;;;;;3.88;0.85;;;14.90;99.90;;;;;;5057149;28;20494;-65
2021/09/30 13:44:12;;;;;;;8.85;1.80;;;14.80;99.90;;;;;;5074169;28;20048;-65
2021/09/30 13:46:38;;;;;;;7.07;0.93;;;14.80;99.90;;;;;;5076717;28;20036;-65
2021/09/30 13:49:04;;;;;;;8.88;1.08;;;14.60;99.90;;;;;;5071920;28;20418;-65
2021/09/30 13:51:31;;;;;;;9.40;0.63;;;14.60;99.90;;;;;;5078012;28;20039;-65
2021/09/30 13:53:58;;;;;;;8.10;0.88;;;14.50;99.90;;;;;;5040937;28;20040;-65
2021/09/30 13:56:24;;;;;;;6.40;1.05;;;14.50;99.90;;;;;;5054614;28;20474;-65
2021/09/30 13:58:50;;;;;;;8.65;1.05;;;14.40;99.90;;;;;;5076780;28;20508;-65
2021/09/30 14:01:17;;;;;;;6.38;1.40;;;14.30;99.90;;;;;;5074498;28;20036;-65
2021/09/30 14:03:43;;;;;;;6.65;0.77;;;14.20;99.90;;;;;;5056798;28;20040;-65
2021/09/30 14:06:09;;;;;;;11.32;1.50;;;14.10;99.90;;;;;;5074606;28;20111;-66
2021/09/30 14:08:40;;;;;;;9.73;0.93;;;14.10;99.90;;;;;;5056112;28;20055;-65
2021/09/30 14:11:09;;;;;;;7.30;0.90;;;14.10;99.90;;;;;;5037365;28;20032;-65
2021/09/30 14:13:36;;;;;;;9.23;0.98;;;14.00;99.90;;;;;;5074170;28;20051;-65
2021/09/30 14:16:03;;;;;;;6.40;1.15;;;14.00;99.90;;;;;;5055583;28;20486;-65
2021/09/30 14:18:30;;;;;;;8.30;1.92;;;14.00;99.90;;;;;;5041062;28;20051;-65
2021/09/30 14:20:55;;;;;;;8.50;0.95;;;14.00;99.90;;;;;;5074757;28;20036;-65
2021/09/30 14:23:22;;;;;;;9.65;1.10;;;14.00;99.90;;;;;;5075620;28;20032;-65
2021/09/30 14:25:49;;;;;;;7.07;1.45;;;14.00;99.90;;;;;;5057438;28;20064;-65
2021/09/30 14:28:15;;;;;;;8.15;1.15;;;14.00;99.90;;;;;;5057087;28;20036;-65
2021/09/30 14:30:41;;;;;;;6.95;1.02;;;13.90;99.90;;;;;;5076702;28;20443;-65
2021/09/30 14:33:07;;;;;;;6.95;1.10;;;13.90;99.90;;;;;;5079054;28;20123;-65
2021/09/30 14:35:33;;;;;;;7.43;1.15;;;13.90;99.90;;;;;;5057274;28;20154;-65
2021/09/30 14:37:59;;;;;;;5.45;2.13;;;14.00;99.90;;;;;;5047638;28;20051;-65
2021/09/30 14:40:25;;;;;;;6.20;1.15;;;13.90;99.90;;;;;;5056577;28;20040;-65
2021/09/30 14:42:51;;;;;;;8.63;1.40;;;14.00;99.90;;;;;;5077037;28;20032;-65
2021/09/30 14:45:17;;;;;;;8.10;0.90;;;14.00;99.90;;;;;;5078337;28;20105;-65
2021/09/30 14:47:43;;;;;;;4.68;0.88;;;14.00;99.90;;;;;;5076751;28;20051;-65
2021/09/30 14:50:08;;;;;;;5.90;0.80;;;14.00;99.90;;;;;;5060029;28;20052;-65
2021/09/30 14:52:34;;;;;;;11.23;1.10;;;14.00;99.90;;;;;;5074399;28;20557;-65
2021/09/30 14:55:00;;;;;;;7.88;1.17;;;13.90;99.90;;;;;;5077093;28;20531;-65
2021/09/30 14:57:26;;;;;;;8.38;1.40;;;13.90;99.90;;;;;;5075401;28;20044;-65
2021/09/30 14:59:52;;;;;;;7.00;1.27;;;13.90;99.90;;;;;;5076649;28;20049;-65
2021/09/30 15:02:18;;;;;;;7.00;1.15;;;14.00;99.90;;;;;;5059262;28;20044;-65
2021/09/30 15:04:43;;;;;;;8.07;0.80;;;13.90;99.90;;;;;;5060043;28;20467;-66
2021/09/30 15:07:09;;;;;;;7.95;1.42;;;13.90;99.90;;;;;;5061695;28;20623;-65
2021/09/30 15:09:35;;;;;;;7.40;0.90;;;13.80;99.90;;;;;;5061352;28;20028;-66
2021/09/30 15:12:01;;;;;;;14.63;1.65;;;13.80;99.90;;;;;;5059432;28;20112;-65
2021/09/30 15:14:27;;;;;;;4.82;1.23;;;13.80;99.90;;;;;;5076342;28;20040;-65
2021/09/30 15:17:00;;;;;;;5.07;1.05;;;13.80;99.90;;;;;;5057447;28;20047;-65
2021/09/30 15:19:28;;;;;;;15.43;1.55;;;13.70;99.90;;;;;;5074144;28;20044;-65
2021/09/30 15:21:54;;;;;;;5.30;0.90;;;13.70;99.90;;;;;;5075397;28;20371;-66
2021/09/30 15:24:21;;;;;;;5.38;0.55;;;13.70;99.90;;;;;;5059484;28;20106;-66
2021/09/30 15:26:48;;;;;;;7.22;0.82;;;13.70;99.90;;;;;;5081411;28;20164;-65
2021/09/30 15:29:18;;;;;;;7.38;1.13;;;13.70;99.90;;;;;;5079286;28;20044;-65
2021/09/30 15:31:46;;;;;;;4.95;0.80;;;13.60;99.90;;;;;;5055932;28;20032;-65
2021/09/30 15:34:14;;;;;;;5.72;1.00;;;13.60;99.90;;;;;;5060994;28;20486;-65
2021/09/30 15:36:40;;;;;;;2.75;0.63;;;13.50;99.90;;;;;;5064588;28;20566;-65
2021/09/30 15:39:07;;;;;;;6.38;1.05;;;13.50;99.90;;;;;;5079457;28;20039;-65